Latest Weather Observations for Macquarie Island

IDT60801

Issued at 4:35 am EDT Friday 24 October 2014 (issued every 30 minutes, with the page automatically refreshed every 10 minutes)

About weather observations | Map of weather stations | Latest weather observations for TAS | Other Formats
Station Details ID: 300004 Name: MACQUARIE ISLAND Lat: -54.50 Lon: 158.94 Height: 6.0 m
Data from the previous 72 hours. | See also: Recent months at Macquarie Island
Date/Time
EDT
Temp
°C
App
Temp
°C
Dew
Point
Rel
Hum
%
Delta-T
°C
Wind Press
QNH
hPa
Press
MSL
hPa
Rain
since 9 am
mm
Dir
 
Spd
km/h
Gust
km/h
Spd
kts
Gust
kts
24/04:30am 4.7 -5.5 3.4 91 0.5 WNW 46 54 25 29 1007.8 - 0.6
24/04:00am 4.7 -5.5 3.4 91 0.5 WNW 46 56 25 30 1007.9 - 0.6
24/03:30am 4.7 -5.5 3.2 90 0.6 WNW 46 56 25 30 1008.1 - 0.6
24/03:00am 4.7 -5.5 3.2 90 0.6 WNW 46 56 25 30 1008.0 1008.3 0.6
24/02:30am 4.5 -4.4 2.8 89 0.7 WNW 39 48 21 26 1008.0 - 0.6
24/02:00am 4.5 -5.2 2.7 88 0.7 WNW 43 50 23 27 1008.2 - 0.6
24/01:30am 4.3 -5.5 2.3 87 0.8 WNW 43 52 23 28 1008.6 - 0.6
24/01:00am 4.1 -4.7 1.6 84 1.0 W 37 44 20 24 1008.8 - 0.6
24/12:30am 4.0 -4.5 1.2 82 1.1 W 35 46 19 25 1008.8 - 0.6
24/12:00am 3.9 -5.4 0.6 79 1.3 W 39 48 21 26 1008.9 1009.2 0.6
 
Date/Time
EDT
Temp
°C
App
Temp
°C
Dew
Point
Rel
Hum
%
Delta-T
°C
Wind Press
QNH
hPa
Press
MSL
hPa
Rain
since 9 am
mm
Dir
 
Spd
km/h
Gust
km/h
Spd
kts
Gust
kts
23/11:30pm 3.6 -5.9 -0.4 75 1.5 W 39 46 21 25 1009.0 - 0.6
23/11:00pm 3.3 -7.0 -1.3 72 1.7 W 43 57 23 31 1009.0 - 0.6
23/10:30pm 3.1 -8.3 -2.2 68 1.9 W 48 59 26 32 1008.8 - 0.6
23/10:00pm 3.0 -7.7 -2.7 66 2.0 W 44 65 24 35 1008.7 - 0.6
23/09:30pm 2.7 -8.1 -3.2 65 2.0 W 44 63 24 34 1008.1 - 0.6
23/09:02pm 2.8 -8.2 -1.9 71 1.7 W 46 65 25 35 1007.7 - 0.6
23/09:00pm 2.8 -7.8 -2.1 70 1.7 W 44 59 24 32 1007.6 1007.9 0.6
23/08:30pm 2.7 -9.5 -2.8 67 1.9 W 52 72 28 39 1007.1 - 0.6
23/08:00pm 2.8 -7.6 -2.1 70 1.7 W 43 70 23 38 1006.5 - 0.6
23/07:59pm 2.8 -6.5 -1.9 71 1.7 W 37 54 20 29 1006.9 - 0.6
23/07:30pm 2.5 -7.6 -2.8 68 1.8 WSW 41 72 22 39 1006.5 - 0.6
23/07:09pm 2.6 -4.7 -2.5 69 1.8 WSW 26 59 14 32 1005.8 - 0.6
23/07:05pm 2.6 -8.5 -2.7 68 1.8 SW 46 65 25 35 1005.8 - 0.6
23/07:00pm 2.5 -6.5 -2.6 69 1.8 W 35 59 19 32 1005.7 - 0.6
23/06:30pm 2.8 -5.6 -1.2 75 1.4 WSW 33 63 18 34 1004.9 - 0.6
23/06:00pm 3.0 -5.3 -1.5 72 1.6 WSW 32 56 17 30 1004.2 1004.5 0.6
23/05:30pm 2.9 -5.0 -1.3 74 1.5 WSW 30 57 16 31 1003.6 - 0.6
23/05:00pm 3.0 -5.4 -1.0 75 1.4 W 33 57 18 31 1003.0 - 0.6
23/04:30pm 3.0 -5.7 -0.6 77 1.3 WSW 35 87 19 47 1002.1 - 0.6
23/04:29pm 3.0 -5.7 -0.6 77 1.3 WSW 35 87 19 47 1002.3 - 0.6
23/04:00pm 3.4 -5.3 -0.2 77 1.3 WSW 35 59 19 32 1001.3 - 0.6
23/03:30pm 3.3 -5.0 -0.5 76 1.4 SW 33 63 18 34 1000.6 - 0.6
23/03:00pm 3.0 -6.4 -0.3 79 1.2 SW 39 85 21 46 999.8 1000.1 0.6
23/02:55pm 2.9 -6.9 -0.2 80 1.1 SW 41 85 22 46 999.7 - 0.6
23/02:54pm 2.9 -6.6 -0.4 79 1.2 SW 39 59 21 32 999.6 - 0.6
23/02:30pm 3.3 -5.8 -0.3 77 1.3 W 37 70 20 38 998.7 - 0.6
23/02:26pm 3.2 -5.1 -0.6 76 1.4 W 33 57 18 31 998.7 - 0.6
23/02:25pm 3.2 -5.5 -0.6 76 1.4 W 35 50 19 27 998.8 - 0.6
23/02:17pm 3.1 -7.1 -0.5 77 1.3 SW 43 74 23 40 998.6 - 0.6
23/02:00pm 3.1 -8.4 -0.2 79 1.2 W 50 76 27 41 997.7 - 0.6
23/01:30pm 3.5 -7.6 0.2 79 1.2 W 48 80 26 43 997.0 - 0.6
23/01:00pm 3.2 -7.2 -0.3 78 1.3 W 44 76 24 41 996.4 - 0.6
23/12:55pm 3.3 -5.5 -0.9 74 1.5 WSW 35 63 19 34 996.7 - 0.6
23/12:30pm 3.0 -9.6 -0.1 80 1.1 W 56 87 30 47 996.0 - 0.6
23/12:22pm 3.3 -10.3 0.0 79 1.2 W 61 87 33 47 995.7 - 0.6
23/12:17pm 3.4 -6.0 -0.2 77 1.3 W 39 83 21 45 995.6 - 0.6
23/12:01pm 2.7 -6.0 -0.6 79 1.2 WSW 35 59 19 32 995.7 - 0.6
23/12:00pm 2.6 -5.6 -1.0 77 1.3 WSW 32 41 17 22 996.0 996.3 0.6
23/11:30am 3.4 -8.0 0.8 83 1.0 W 50 76 27 41 995.1 - 0.6
23/11:00am 3.6 -9.1 -0.2 76 1.4 W 56 80 30 43 994.6 - 0.4
23/10:30am 3.2 -6.5 0.8 84 0.9 W 41 74 22 40 994.1 - 0.4
23/10:00am 3.0 -6.6 1.2 88 0.7 W 41 72 22 39 994.0 - 0.4
23/09:30am 3.4 -5.0 1.6 88 0.7 W 35 61 19 33 993.2 - 0.2
23/09:00am 3.9 -5.3 1.1 82 1.1 W 39 63 21 34 992.7 993.0 8.2
23/08:31am 3.5 -5.0 0.9 83 1.0 W 35 54 19 29 992.3 - 8.2
23/08:30am 3.6 -4.5 1.0 83 1.0 W 33 44 18 24 992.3 - 8.2
23/08:00am 3.2 -4.0 0.6 83 1.0 WSW 28 54 15 29 991.8 - 8.2
23/07:30am 2.8 -4.4 0.4 84 0.9 WSW 28 52 15 28 991.3 - 8.2
23/07:00am 2.6 -5.4 0.2 84 0.9 SW 32 50 17 27 990.8 - 8.2
23/06:30am 2.4 -5.8 0.5 87 0.7 SW 33 52 18 28 990.1 - 8.2
23/06:00am 2.2 -6.8 0.4 88 0.7 WSW 37 65 20 35 989.3 989.6 8.2
23/05:30am 2.4 -6.6 -0.2 83 1.0 WSW 37 63 20 34 988.6 - 8.2
23/05:00am 2.3 -4.9 0.7 89 0.6 WSW 28 54 15 29 988.2 - 8.2
23/04:52am 2.2 -6.3 0.6 89 0.6 SW 35 59 19 32 988.1 - 8.2
23/04:30am 2.5 -6.3 1.2 91 0.5 W 37 74 20 40 987.8 - 8.0
23/04:00am 2.7 -7.8 1.2 90 0.6 W 46 67 25 36 987.3 - 8.0
23/03:42am 3.0 -7.1 1.7 91 0.5 W 44 65 24 35 987.2 - 7.8
23/03:30am 3.1 -7.0 1.8 91 0.5 W 44 61 24 33 987.2 - 7.8
23/03:01am 3.4 -6.4 2.1 91 0.5 W 43 61 23 33 987.1 - 7.8
23/03:00am 3.4 -6.4 2.2 92 0.5 W 43 57 23 31 987.1 987.4 7.8
23/02:30am 3.9 -6.0 2.7 92 0.5 W 44 63 24 34 987.0 - 7.8
23/02:06am 4.0 -5.3 3.0 93 0.4 W 41 59 22 32 986.9 - 7.6
23/02:00am 4.0 -6.2 3.0 93 0.4 WSW 46 63 25 34 987.0 - 7.6
23/01:30am 4.5 -3.9 3.6 94 0.4 W 37 48 20 26 986.9 - 7.6
23/01:00am 4.7 -4.4 4.0 95 0.3 W 41 52 22 28 987.1 - 7.6
23/12:30am 5.0 -4.6 4.4 96 0.3 W 44 54 24 29 987.4 - 7.6
23/12:21am 4.9 -5.1 4.3 96 0.3 W 46 54 25 29 987.5 - 7.6
23/12:00am 4.9 -2.6 4.3 96 0.3 WNW 33 41 18 22 987.6 987.9 7.6
 
Date/Time
EDT
Temp
°C
App
Temp
°C
Dew
Point
Rel
Hum
%
Delta-T
°C
Wind Press
QNH
hPa
Press
MSL
hPa
Rain
since 9 am
mm
Dir
 
Spd
km/h
Gust
km/h
Spd
kts
Gust
kts
22/11:30pm 4.9 -2.1 4.3 96 0.3 W 30 39 16 21 987.9 - 7.6
22/11:00pm 5.0 -2.9 4.4 96 0.3 WNW 35 41 19 22 988.1 - 7.6
22/10:30pm 5.1 -3.5 4.5 96 0.3 WNW 39 46 21 25 988.2 - 7.6
22/10:16pm 5.2 -3.4 4.6 96 0.3 WNW 39 43 21 23 988.4 - 7.6
22/10:00pm 5.3 -3.3 4.7 96 0.3 NNW 39 44 21 24 988.6 - 7.4
22/09:58pm 5.3 -3.3 4.7 96 0.3 NNW 39 43 21 23 988.6 - 7.4
22/09:33pm 5.6 -3.7 5.0 96 0.3 N 43 48 23 26 988.9 - 7.4
22/09:31pm 5.6 -4.3 5.0 96 0.3 NE 46 50 25 27 988.9 - 7.4
22/09:30pm 5.6 -3.9 5.0 96 0.3 N 44 50 24 27 988.9 - 7.4
22/09:27pm 5.6 -3.7 5.0 96 0.3 NNW 43 48 23 26 989.0 - 7.4
22/09:25pm 5.6 -3.9 5.0 96 0.3 NNE 44 50 24 27 989.0 - 7.4
22/09:00pm 5.6 -2.6 5.0 96 0.3 NNW 37 46 20 25 989.3 989.6 7.4
22/08:30pm 5.7 -2.1 5.1 96 0.3 NNW 35 46 19 25 989.9 - 7.2
22/08:00pm 5.7 -2.1 5.1 96 0.3 NNW 35 46 19 25 990.6 - 6.6
22/07:48pm 5.9 -3.9 5.3 96 0.3 NNW 46 52 25 28 990.8 - 6.4
22/07:46pm 5.9 -4.7 5.3 96 0.3 N 50 54 27 29 990.8 - 6.4
22/07:40pm 5.8 -2.7 5.2 96 0.3 NNW 39 44 21 24 991.1 - 6.4
22/07:38pm 5.8 -3.1 5.2 96 0.3 N 41 44 22 24 991.1 - 6.2
22/07:30pm 5.9 -4.7 5.3 96 0.3 NNW 50 59 27 32 991.0 - 5.8
22/07:00pm 5.9 -4.3 5.3 96 0.3 NNW 48 57 26 31 991.6 - 5.4
22/06:30pm 5.9 -5.4 5.3 96 0.3 NNW 54 61 29 33 992.2 - 4.8
22/06:00pm 5.7 -4.9 5.1 96 0.3 NNW 50 57 27 31 993.2 993.5 4.2
22/05:30pm 5.7 -4.9 5.1 96 0.3 NNW 50 56 27 30 994.2 - 3.6
22/05:00pm 5.6 -4.3 4.9 95 0.3 NNW 46 56 25 30 995.1 - 3.2
22/04:30pm 5.5 -4.4 4.8 95 0.3 NNW 46 54 25 29 996.0 - 2.8
22/04:00pm 5.3 -4.6 4.6 95 0.3 NNW 46 52 25 28 997.1 - 2.2
22/03:30pm 5.4 -4.1 4.7 95 0.3 NNW 44 52 24 28 997.8 - 1.4
22/03:00pm 5.4 -4.0 4.5 94 0.4 NNW 43 50 23 27 998.8 999.1 0.8
22/02:30pm 5.4 -3.6 4.7 95 0.3 NNW 41 50 22 27 999.8 - 0.8
22/02:00pm 5.4 -3.6 4.5 94 0.4 NNW 41 48 22 26 1000.4 - 0.6
22/01:30pm 5.6 -2.6 4.6 93 0.4 NNW 37 44 20 24 1001.2 - 0.6
22/01:00pm 5.3 -3.3 4.4 94 0.4 NNW 39 48 21 26 1002.2 - 0.6
22/12:52pm 5.3 -4.1 4.4 94 0.4 NNW 43 46 23 25 1002.4 - 0.6
22/12:50pm 5.3 -4.1 4.4 94 0.4 NE 43 48 23 26 1002.5 - 0.6
22/12:45pm 5.3 -3.3 4.4 94 0.4 NNW 39 43 21 23 1002.7 - 0.6
22/12:40pm 5.3 -3.3 4.4 94 0.4 NNE 39 44 21 24 1002.8 - 0.4
22/12:30pm 5.4 -2.9 4.4 93 0.4 NNW 37 44 20 24 1002.9 - 0.2
22/12:22pm 5.4 -3.6 4.4 93 0.4 N 41 46 22 25 1003.0 - 0.2
22/12:16pm 5.5 -3.9 4.3 92 0.5 NNE 43 46 23 25 1003.1 - 0.2
22/12:00pm 5.6 -3.8 4.4 92 0.5 NNW 43 50 23 27 1003.6 1003.9 0.2
22/11:30am 5.4 -3.3 4.2 92 0.5 NNW 39 46 21 25 1004.5 - 0.2
22/11:16am 5.3 -3.4 4.1 92 0.5 N 39 44 21 24 1004.9 - 0.2
22/11:14am 5.3 -3.8 4.1 92 0.5 NNE 41 46 22 25 1005.0 - 0.2
22/11:12am 5.3 -3.8 4.1 92 0.5 NNW 41 46 22 25 1005.0 - 0.2
22/11:00am 5.4 -4.0 4.2 92 0.5 NNE 43 48 23 26 1005.3 - 0.2
22/10:30am 5.2 -3.9 4.2 93 0.4 N 41 48 22 26 1005.8 - 0.2
22/10:00am 5.4 -4.0 4.4 93 0.4 N 43 52 23 28 1006.1 - 0.2
22/09:49am 5.3 -4.1 4.3 93 0.4 NNE 43 50 23 27 1006.3 - 0.2
22/09:46am 5.3 -4.1 4.3 93 0.4 N 43 46 23 25 1006.3 - 0.2
22/09:32am 5.3 -4.7 4.3 93 0.4 NNE 46 52 25 28 1006.5 - 0.2
22/09:30am 5.3 -4.3 4.4 94 0.4 N 44 54 24 29 1006.5 - 0.2
22/09:00am 5.1 -4.6 4.1 93 0.4 NNE 44 50 24 27 1006.9 1007.2 0.0
22/08:56am 5.2 -4.4 4.2 93 0.4 NNE 44 50 24 27 1007.0 - 0.0
22/08:51am 5.2 -4.3 4.0 92 0.5 N 43 48 23 26 1007.1 - 0.0
22/08:45am 5.2 -4.3 4.0 92 0.5 NNE 43 52 23 28 1007.2 - 0.0
22/08:39am 5.2 -4.3 4.0 92 0.5 N 43 50 23 27 1007.3 - 0.0
22/08:34am 5.3 -4.2 4.1 92 0.5 NW 43 50 23 27 1007.4 - 0.0
22/08:30am 5.3 -4.4 4.0 91 0.5 N 44 50 24 27 1007.3 - 0.0
22/08:00am 5.6 -3.9 4.1 90 0.6 NW 43 50 23 27 1007.7 - 0.0
22/07:30am 5.2 -4.3 3.9 91 0.5 NW 43 50 23 27 1007.9 - 0.0
22/07:00am 5.0 -3.8 3.7 91 0.5 WNW 39 48 21 26 1008.1 - 0.0
22/06:30am 5.0 -4.1 3.8 92 0.5 WNW 41 48 22 26 1008.2 - 0.0
22/06:00am 5.0 -4.7 3.8 92 0.5 WNW 44 52 24 28 1008.4 1008.7 0.0
22/05:30am 4.9 -5.2 3.7 92 0.5 NW 46 57 25 31 1008.6 - 0.0
22/05:00am 4.8 -5.7 3.5 91 0.5 NW 48 57 26 31 1008.9 - 0.0
22/04:30am 4.9 -4.9 3.6 91 0.5 WNW 44 54 24 29 1009.2 - 0.0
22/04:00am 4.9 -5.3 3.4 90 0.6 WNW 46 56 25 30 1009.5 - 0.0
22/03:30am 4.9 -4.9 3.4 90 0.6 WNW 44 56 24 30 1009.8 - 0.0
22/03:00am 4.8 -5.4 3.3 90 0.6 WNW 46 57 25 31 1009.9 1010.2 0.0
22/02:30am 4.9 -5.7 3.2 89 0.7 WNW 48 59 26 32 1010.1 - 0.0
22/02:00am 5.0 -5.9 3.3 89 0.7 WNW 50 59 27 32 1010.4 - 0.0
22/01:30am 5.0 -5.5 3.5 90 0.6 WNW 48 63 26 34 1010.3 - 0.0
22/01:00am 5.0 -5.5 3.5 90 0.6 WNW 48 57 26 31 1010.5 - 0.0
22/12:30am 5.0 -5.9 3.3 89 0.7 WNW 50 63 27 34 1010.3 - 0.0
22/12:00am 5.1 -5.5 3.3 88 0.7 WNW 48 65 26 35 1010.6 1010.9 0.0
 
Date/Time
EDT
Temp
°C
App
Temp
°C
Dew
Point
Rel
Hum
%
Delta-T
°C
Wind Press
QNH
hPa
Press
MSL
hPa
Rain
since 9 am
mm
Dir
 
Spd
km/h
Gust
km/h
Spd
kts
Gust
kts
21/11:30pm 5.1 -5.4 3.6 90 0.6 WNW 48 67 26 36 1010.7 - 0.0
21/11:29pm 5.0 -5.5 3.5 90 0.6 WNW 48 67 26 36 1010.7 - 0.0
21/11:00pm 5.1 -5.4 3.6 90 0.6 WNW 48 59 26 32 1010.7 - 0.0
21/10:30pm 5.1 -5.8 3.4 89 0.7 WNW 50 63 27 34 1010.7 - 0.0
21/10:00pm 5.2 -4.5 3.7 90 0.6 W 44 56 24 30 1010.9 - 0.0
21/09:30pm 5.2 -4.6 3.5 89 0.7 W 44 56 24 30 1011.1 - 0.0
21/09:00pm 5.3 -6.7 3.6 89 0.7 WNW 56 67 30 36 1010.9 1011.2 0.0
21/08:30pm 5.3 -5.6 3.8 90 0.6 WNW 50 59 27 32 1010.8 - 0.0
21/08:00pm 5.3 -5.2 3.8 90 0.6 WNW 48 59 26 32 1010.7 - 0.0
21/07:30pm 5.3 -5.6 3.8 90 0.6 WNW 50 59 27 32 1010.4 - 0.0
21/07:00pm 5.4 -4.3 4.1 91 0.6 W 44 54 24 29 1010.6 - 0.0
21/06:30pm 5.4 -4.3 4.1 91 0.6 W 44 54 24 29 1010.3 - 0.0
21/06:00pm 5.5 -4.1 4.2 91 0.6 W 44 56 24 30 1010.2 1010.5 0.0
21/05:30pm 5.4 -4.2 4.4 93 0.4 W 44 54 24 29 1010.0 - 0.0
21/05:13pm 5.3 -4.7 4.4 94 0.4 W 46 65 25 35 1010.1 - 0.0
21/05:00pm 5.3 -4.7 4.4 94 0.4 W 46 57 25 31 1010.0 - 0.0
21/04:30pm 5.4 -4.6 4.5 94 0.4 W 46 56 25 30 1010.1 - 0.0
21/04:00pm 5.5 -4.5 4.5 93 0.4 WNW 46 56 25 30 1009.9 - 0.0
21/03:30pm 5.6 -3.9 4.7 94 0.4 WNW 44 54 24 29 1009.9 - 0.0
21/03:00pm 5.5 -3.1 4.6 94 0.4 W 39 48 21 26 1010.1 1010.4 0.0
21/02:30pm 5.4 -3.6 4.7 95 0.3 W 41 50 22 27 1009.9 - 0.0
21/02:00pm 5.4 -3.6 4.7 95 0.3 W 41 52 22 28 1010.1 - 0.0
21/01:30pm 5.5 -3.1 4.6 94 0.4 W 39 50 21 27 1010.0 - 0.0
21/01:00pm 5.4 -2.8 4.7 95 0.3 WNW 37 50 20 27 1009.9 - 0.0
21/12:30pm 5.5 -2.4 4.6 94 0.4 W 35 44 19 24 1010.0 - 0.0
21/11:30am 5.5 -2.4 4.6 94 0.4 W 35 46 19 25 1009.9 - 0.0
21/11:00am 5.5 -2.7 4.6 94 0.4 WNW 37 46 20 25 1009.8 - 0.0
21/10:30am 5.3 -3.0 4.4 94 0.4 WNW 37 46 20 25 1009.9 - 0.0
21/10:00am 5.3 -2.3 4.1 92 0.5 W 33 43 18 23 1009.8 - 0.0
21/09:30am 5.3 -3.5 3.6 89 0.7 W 39 48 21 26 1009.7 - 0.0
21/09:00am 4.9 -4.7 3.2 89 0.7 W 43 52 23 28 1009.7 1010.0 4.6
21/08:30am 5.0 -4.7 2.9 86 0.9 W 43 54 23 29 1009.6 - 4.6
21/08:00am 4.8 -5.5 2.7 86 0.9 W 46 57 25 31 1009.2 - 4.6
21/07:30am 4.6 -5.8 2.3 85 0.9 W 46 57 25 31 1008.9 - 4.6
21/07:00am 4.6 -7.3 2.0 83 1.0 W 54 67 29 36 1008.6 - 4.6
21/06:53am 4.5 -5.9 1.9 83 1.0 W 46 65 25 35 1008.4 - 4.6
21/06:30am 4.4 -6.9 1.1 79 1.3 W 50 65 27 35 1008.0 - 4.6
21/06:00am 4.2 -7.1 0.9 79 1.3 W 50 72 27 39 1007.5 1007.8 4.6
21/05:30am 4.2 -7.6 0.7 78 1.3 W 52 74 28 40 1006.9 - 4.6
21/05:00am 4.2 -7.1 1.1 80 1.2 W 50 69 27 37 1006.2 - 4.6

Other Formats:

Comma delimited format used in spreadsheet applications
http://www.bom.gov.au/fwo/IDT60801/IDT60801.94998.axf

JavaScript Object Notation format (JSON) in row-major order
http://www.bom.gov.au/fwo/IDT60801/IDT60801.94998.json